Time;durP1;ratioP1;P1;durP2;ratioP2;P2;SDS_P1;SDS_P2;PMS_P1;PMS_P2;Temp;Humidity;BMP_temperature;BMP_pressure;BME280_temperature;BME280_humidity;BME280_pressure;Samples;Min_cycle;Max_cycle;Signal;HPM_P1;HPM_P2
2024/01/27 00:02:13;;;;;;;;;;;;;;;1.74;76.03;102332.81;4943091;28;19944;-85
2024/01/27 00:04:40;;;;;;;;;;;;;;;1.88;74.62;102328.31;4926146;28;19934;-82
2024/01/27 00:07:07;;;;;;;;;;;;;;;1.96;74.58;102324.41;4925077;28;19926;-85
2024/01/27 00:09:34;;;;;;;;;;;;;;;2.01;74.65;102317.75;4941155;28;19937;-84
2024/01/27 00:12:00;;;;;;;;;;;;;;;2.02;73.67;102319.53;4943454;28;19926;-82
2024/01/27 00:14:27;;;;;;;;;;;;;;;2.07;73.63;102323.25;4926013;28;19927;-83
2024/01/27 00:16:54;;;;;;;;;;;;;;;2.19;73.45;102320.38;4940883;28;20049;-82
2024/01/27 00:19:21;;;;;;;;;;;;;;;2.02;74.01;102319.53;4925128;28;19938;-82
2024/01/27 00:21:50;;;;;;;;;;;;;;;1.84;74.03;102339.31;4938597;28;19927;-88
2024/01/27 00:24:16;;;;;;;;;;;;;;;1.86;75.44;102337.72;4939732;28;19937;-83
2024/01/27 00:26:43;;;;;;;;;;;;;;;1.97;76.07;102339.16;4942824;28;20294;-82
2024/01/27 00:29:10;;;;;;;;;;;;;;;1.80;75.31;102337.41;4941536;28;20001;-83
2024/01/27 00:31:37;;;;;;;;;;;;;;;1.82;74.92;102338.34;4944948;28;19926;-83
2024/01/27 00:34:04;;;;;;;;;;;;;;;1.77;75.09;102343.31;4941226;28;19933;-95
2024/01/27 00:36:30;;;;;;;;;;;;;;;1.63;76.10;102340.00;4938980;28;19926;-87
2024/01/27 00:38:57;;;;;;;;;;;;;;;1.68;76.55;102332.47;4944814;28;19986;-86
2024/01/27 00:41:24;;;;;;;;;;;;;;;1.68;76.54;102328.19;4943182;28;19989;-86
2024/01/27 00:43:51;;;;;;;;;;;;;;;1.69;78.65;102331.66;4925390;28;19927;-82
2024/01/27 00:46:18;;;;;;;;;;;;;;;1.61;78.42;102331.28;4935197;28;19926;-84
2024/01/27 00:48:45;;;;;;;;;;;;;;;1.33;77.69;102329.84;4955872;28;20274;-86
2024/01/27 00:51:11;;;;;;;;;;;;;;;1.48;79.35;102339.22;4948295;28;19926;-82
2024/01/27 00:53:38;;;;;;;;;;;;;;;1.61;79.92;102349.38;4951850;28;19926;-81
2024/01/27 00:56:05;;;;;;;;;;;;;;;1.62;80.59;102353.72;4945764;28;20385;-82
2024/01/27 00:58:32;;;;;;;;;;;;;;;1.28;80.35;102358.84;4952029;28;19926;-81
2024/01/27 01:00:58;;;;;;;;;;;;;;;1.27;80.18;102359.66;4946926;28;19934;-82
2024/01/27 01:03:25;;;;;;;;;;;;;;;1.23;79.98;102350.81;4931454;28;20001;-83
2024/01/27 01:05:52;;;;;;;;;;;;;;;1.28;80.37;102351.97;4951269;28;19926;-82
2024/01/27 01:08:19;;;;;;;;;;;;;;;0.91;79.05;102355.13;4945282;28;19926;-82
2024/01/27 01:10:45;;;;;;;;;;;;;;;1.09;80.29;102354.38;4947730;28;20001;-83
2024/01/27 01:13:12;;;;;;;;;;;;;;;1.12;80.39;102359.72;4944057;28;19927;-82
2024/01/27 01:15:39;;;;;;;;;;;;;;;1.12;79.18;102354.56;4932606;28;19927;-84
2024/01/27 01:18:06;;;;;;;;;;;;;;;1.24;80.12;102368.13;4928608;28;19968;-82
2024/01/27 01:20:33;;;;;;;;;;;;;;;0.97;78.20;102376.19;4947731;28;19927;-83
2024/01/27 01:22:59;;;;;;;;;;;;;;;1.07;80.13;102376.66;4948969;28;19927;-90
2024/01/27 01:25:26;;;;;;;;;;;;;;;1.18;80.47;102383.31;4947274;28;19927;-82
2024/01/27 01:27:53;;;;;;;;;;;;;;;1.10;81.27;102385.50;4937881;28;19926;-82
2024/01/27 01:30:19;;;;;;;;;;;;;;;0.82;81.22;102390.81;4941018;28;19942;-83
2024/01/27 01:32:46;;;;;;;;;;;;;;;0.98;82.29;102392.56;4952538;28;19945;-83
2024/01/27 01:35:13;;;;;;;;;;;;;;;0.73;79.67;102395.50;4937509;28;19926;-83
2024/01/27 01:37:40;;;;;;;;;;;;;;;0.60;80.45;102392.19;4942418;28;19927;-86
2024/01/27 01:40:07;;;;;;;;;;;;;;;0.41;79.63;102394.53;4938136;28;19927;-83
2024/01/27 01:42:33;;;;;;;;;;;;;;;0.89;81.91;102392.94;4949920;28;19927;-82
2024/01/27 01:45:00;;;;;;;;;;;;;;;0.85;81.26;102396.16;4945404;28;20235;-83
2024/01/27 01:47:27;;;;;;;;;;;;;;;0.52;80.25;102396.03;4946823;28;20001;-82
2024/01/27 01:49:55;;;;;;;;;;;;;;;0.72;81.17;102393.69;4941145;28;19927;-85
2024/01/27 01:52:21;;;;;;;;;;;;;;;0.81;81.72;102399.38;4940466;28;20025;-83
2024/01/27 01:54:50;;;;;;;;;;;;;;;0.43;81.75;102408.44;4942741;28;19941;-82
2024/01/27 01:57:16;;;;;;;;;;;;;;;0.16;81.04;102413.78;4927850;28;20017;-83
2024/01/27 01:59:44;;;;;;;;;;;;;;;0.22;81.38;102421.88;4933732;28;19927;-82
2024/01/27 02:02:11;;;;;;;;;;;;;;;0.21;81.09;102426.94;4946408;28;19937;-82
2024/01/27 02:04:41;;;;;;;;;;;;;;;0.20;80.74;102415.72;4943496;28;19927;-83
2024/01/27 02:07:08;;;;;;;;;;;;;;;0.27;80.57;102417.84;4943076;28;19948;-83
2024/01/27 02:09:35;;;;;;;;;;;;;;;0.38;80.55;102417.59;4941873;28;19930;-87
2024/01/27 02:12:02;;;;;;;;;;;;;;;0.32;79.95;102424.19;4941971;28;19926;-82
2024/01/27 02:14:29;;;;;;;;;;;;;;;0.49;81.05;102417.44;4933754;28;20358;-86
2024/01/27 02:16:56;;;;;;;;;;;;;;;0.24;80.35;102422.84;4935177;28;19942;-85
2024/01/27 02:19:23;;;;;;;;;;;;;;;0.32;80.14;102424.19;4944736;28;19934;-86
2024/01/27 02:21:50;;;;;;;;;;;;;;;0.33;79.97;102428.56;4942933;28;19941;-85
2024/01/27 02:24:16;;;;;;;;;;;;;;;0.36;80.14;102432.13;4944817;28;19927;-83
2024/01/27 02:26:43;;;;;;;;;;;;;;;0.27;80.30;102429.88;4944045;28;20010;-86
2024/01/27 02:29:10;;;;;;;;;;;;;;;0.18;80.65;102432.81;4946963;28;20029;-91
2024/01/27 02:31:37;;;;;;;;;;;;;;;0.16;80.99;102429.28;4943156;28;19926;-83
2024/01/27 02:34:03;;;;;;;;;;;;;;;0.08;80.86;102427.91;4929414;28;19953;-85
2024/01/27 02:36:30;;;;;;;;;;;;;;;0.06;81.34;102426.91;4948027;28;20050;-83
2024/01/27 02:38:57;;;;;;;;;;;;;;;-0.04;82.02;102433.25;4943341;28;19926;-82
2024/01/27 02:41:24;;;;;;;;;;;;;;;-0.11;81.50;102437.13;4941004;28;19927;-82
2024/01/27 02:43:50;;;;;;;;;;;;;;;-0.09;81.78;102432.06;4944260;28;19952;-86
2024/01/27 02:46:18;;;;;;;;;;;;;;;-0.03;81.73;102433.31;4933164;28;19946;-86
2024/01/27 02:48:45;;;;;;;;;;;;;;;-0.07;81.65;102439.09;4940978;28;20030;-83
2024/01/27 02:51:13;;;;;;;;;;;;;;;-0.11;81.68;102444.00;4943183;28;20033;-85
2024/01/27 02:53:39;;;;;;;;;;;;;;;-0.12;81.53;102435.34;4946628;28;19926;-83
2024/01/27 02:56:08;;;;;;;;;;;;;;;-0.10;81.68;102433.75;4942767;28;19990;-85
2024/01/27 02:58:35;;;;;;;;;;;;;;;-0.07;81.43;102433.94;4930132;28;19931;-87
2024/01/27 03:01:01;;;;;;;;;;;;;;;-0.08;81.74;102432.16;4925759;28;20007;-83
2024/01/27 03:03:29;;;;;;;;;;;;;;;-0.15;81.58;102435.16;4924752;28;20350;-82
2024/01/27 03:05:55;;;;;;;;;;;;;;;-0.36;81.93;102429.59;4924264;28;20006;-84
2024/01/27 03:08:22;;;;;;;;;;;;;;;-0.34;82.61;102435.72;4940737;28;19937;-83
2024/01/27 03:10:49;;;;;;;;;;;;;;;-0.32;82.65;102434.13;4941646;28;19927;-83
2024/01/27 03:13:16;;;;;;;;;;;;;;;-0.33;82.50;102436.59;4927350;28;19927;-82
2024/01/27 03:15:43;;;;;;;;;;;;;;;-0.31;82.25;102442.78;4942228;28;19927;-83
2024/01/27 03:18:09;;;;;;;;;;;;;;;-0.38;82.13;102444.97;4942848;28;19981;-82
2024/01/27 03:20:36;;;;;;;;;;;;;;;-0.41;82.22;102447.34;4940463;28;19933;-83
2024/01/27 03:23:03;;;;;;;;;;;;;;;-0.28;82.55;102449.00;4940983;28;19976;-84
2024/01/27 03:25:30;;;;;;;;;;;;;;;-0.23;82.01;102441.56;4944266;28;19926;-83
2024/01/27 03:27:57;;;;;;;;;;;;;;;-0.24;81.86;102434.59;4944004;28;19949;-86
2024/01/27 03:30:26;;;;;;;;;;;;;;;-0.25;82.17;102431.13;4943848;28;19927;-85
2024/01/27 03:32:53;;;;;;;;;;;;;;;-0.25;81.95;102438.84;4944028;28;19943;-82
2024/01/27 03:35:20;;;;;;;;;;;;;;;-0.02;82.87;102432.50;4938914;28;19941;-84
2024/01/27 03:37:47;;;;;;;;;;;;;;;-0.10;82.21;102433.75;4923911;28;19949;-87
2024/01/27 03:40:14;;;;;;;;;;;;;;;-0.11;82.00;102438.81;4924664;28;19934;-84
2024/01/27 03:42:40;;;;;;;;;;;;;;;-0.40;82.22;102437.94;4943664;28;19933;-86
2024/01/27 03:45:07;;;;;;;;;;;;;;;-0.22;83.02;102444.22;4942499;28;19938;-83
2024/01/27 03:47:34;;;;;;;;;;;;;;;-0.23;82.66;102446.72;4943390;28;19938;-83
2024/01/27 03:50:00;;;;;;;;;;;;;;;-0.23;82.99;102442.44;4944225;28;19926;-86
2024/01/27 03:52:27;;;;;;;;;;;;;;;-0.33;83.05;102440.09;4943568;28;19973;-88
2024/01/27 03:54:54;;;;;;;;;;;;;;;-0.30;82.96;102444.56;4941185;28;19926;-83
2024/01/27 03:57:21;;;;;;;;;;;;;;;-0.38;82.79;102444.97;4938868;28;19955;-83
2024/01/27 03:59:50;;;;;;;;;;;;;;;-0.54;83.20;102452.53;4943410;28;19934;-83
2024/01/27 04:02:16;;;;;;;;;;;;;;;-0.78;83.62;102445.06;4941138;28;19927;-84
2024/01/27 04:04:43;;;;;;;;;;;;;;;-0.88;83.71;102447.84;4924829;28;20034;-84
2024/01/27 04:07:10;;;;;;;;;;;;;;;-0.85;83.91;102453.19;4943132;28;19972;-86
2024/01/27 04:09:37;;;;;;;;;;;;;;;-0.89;84.11;102466.69;4947105;28;19981;-83
2024/01/27 04:12:04;;;;;;;;;;;;;;;-0.89;83.99;102466.69;4940313;28;20258;-83
2024/01/27 04:14:31;;;;;;;;;;;;;;;-0.93;84.08;102457.88;4928310;28;20028;-83
2024/01/27 04:16:57;;;;;;;;;;;;;;;-0.94;84.35;102465.47;4940722;28;19927;-86
2024/01/27 04:19:24;;;;;;;;;;;;;;;-0.83;84.35;102471.34;4943947;28;19934;-82
2024/01/27 04:21:51;;;;;;;;;;;;;;;-0.93;84.23;102468.19;4949224;28;19934;-83
2024/01/27 04:24:18;;;;;;;;;;;;;;;-0.92;84.24;102472.53;4939509;28;19934;-84
2024/01/27 04:26:45;;;;;;;;;;;;;;;-0.98;84.34;102471.25;4932674;28;19926;-82
2024/01/27 04:29:14;;;;;;;;;;;;;;;-0.95;84.44;102471.44;4947807;28;20287;-83
2024/01/27 04:31:42;;;;;;;;;;;;;;;-0.98;84.39;102471.25;4944161;28;19926;-82
2024/01/27 04:34:08;;;;;;;;;;;;;;;-1.00;84.33;102484.06;4948284;28;19981;-83
2024/01/27 04:36:36;;;;;;;;;;;;;;;-0.89;84.49;102484.72;4945388;28;19933;-86
2024/01/27 04:39:04;;;;;;;;;;;;;;;-1.02;84.58;102484.75;4932718;28;19927;-83
2024/01/27 04:41:31;;;;;;;;;;;;;;;-0.96;84.53;102488.59;4926674;28;19927;-83
2024/01/27 04:43:58;;;;;;;;;;;;;;;-0.95;84.30;102486.91;4937385;28;19934;-83
2024/01/27 04:46:25;;;;;;;;;;;;;;;-0.69;84.69;102486.00;4940450;28;20465;-84
2024/01/27 04:48:52;;;;;;;;;;;;;;;-0.87;84.31;102475.41;4937202;28;20041;-83
2024/01/27 04:51:19;;;;;;;;;;;;;;;-0.99;84.32;102479.78;4939587;28;19954;-82
2024/01/27 04:53:45;;;;;;;;;;;;;;;-1.06;84.62;102483.63;4924199;28;20335;-88
2024/01/27 04:56:12;;;;;;;;;;;;;;;-1.17;84.50;102475.22;4925841;29;20390;-83
2024/01/27 04:58:39;;;;;;;;;;;;;;;-1.15;84.64;102472.75;4936813;28;19926;-85
2024/01/27 05:01:06;;;;;;;;;;;;;;;-1.06;84.76;102479.38;4931665;28;19927;-82
2024/01/27 05:03:33;;;;;;;;;;;;;;;-0.98;84.73;102479.00;4935193;28;19941;-85
2024/01/27 05:06:00;;;;;;;;;;;;;;;-1.07;84.61;102487.03;4950593;28;19973;-84
2024/01/27 05:08:27;;;;;;;;;;;;;;;-1.12;84.93;102478.97;4935051;28;19931;-82
2024/01/27 05:10:54;;;;;;;;;;;;;;;-0.92;85.41;102477.69;4937589;28;19926;-82
2024/01/27 05:13:24;;;;;;;;;;;;;;;-1.08;85.18;102486.09;4944247;28;20025;-84
2024/01/27 05:15:51;;;;;;;;;;;;;;;-1.03;85.17;102481.25;4947470;28;19934;-87
2024/01/27 05:18:18;;;;;;;;;;;;;;;-1.08;85.56;102480.97;4947373;28;19935;-82
2024/01/27 05:20:45;;;;;;;;;;;;;;;-1.18;85.71;102478.56;4948059;28;19926;-83
2024/01/27 05:23:12;;;;;;;;;;;;;;;-0.98;85.91;102489.31;4945960;28;19933;-89
2024/01/27 05:25:39;;;;;;;;;;;;;;;-0.98;85.35;102490.19;4940877;28;19931;-84
2024/01/27 05:28:06;;;;;;;;;;;;;;;-0.92;85.39;102485.41;4942341;28;19927;-88
2024/01/27 05:30:35;;;;;;;;;;;;;;;-1.05;85.52;102488.00;4944605;28;19927;-85
2024/01/27 05:33:08;;;;;;;;;;;;;;;-1.41;85.84;102489.94;4910215;28;20241;-84
2024/01/27 05:35:35;;;;;;;;;;;;;;;-1.24;86.30;102494.53;4936015;28;19948;-86
2024/01/27 05:38:06;;;;;;;;;;;;;;;-1.33;86.38;102498.16;4946143;28;19935;-85
2024/01/27 05:40:33;;;;;;;;;;;;;;;-1.31;85.98;102496.59;4949200;28;19953;-85
2024/01/27 05:43:04;;;;;;;;;;;;;;;-1.28;86.30;102494.22;4930725;28;19943;-85
2024/01/27 05:45:32;;;;;;;;;;;;;;;-1.32;86.24;102507.69;4950584;28;19969;-86
2024/01/27 05:47:59;;;;;;;;;;;;;;;-1.50;86.10;102505.66;4946640;28;19926;-86
2024/01/27 05:50:30;;;;;;;;;;;;;;;-1.48;86.42;102505.78;4953383;28;19941;-84
2024/01/27 05:52:58;;;;;;;;;;;;;;;-1.36;86.21;102514.34;4931159;28;19929;-90
2024/01/27 05:55:25;;;;;;;;;;;;;;;-1.38;86.19;102512.44;4942269;28;20029;-85
2024/01/27 05:57:52;;;;;;;;;;;;;;;-1.51;86.34;102508.16;4947813;28;19941;-85
2024/01/27 06:00:20;;;;;;;;;;;;;;;-1.47;86.39;102503.28;4912726;28;19977;-96
2024/01/27 06:02:49;;;;;;;;;;;;;;;-1.58;86.49;102511.97;4935397;28;19926;-86
2024/01/27 06:05:17;;;;;;;;;;;;;;;-1.41;86.90;102521.72;4932457;28;19934;-85
2024/01/27 06:07:47;;;;;;;;;;;;;;;-1.43;86.47;102523.31;4915850;28;19981;-85
2024/01/27 06:10:26;;;;;;;;;;;;;;;-1.14;86.36;102521.78;4913732;28;20055;-85
2024/01/27 06:13:00;;;;;;;;;;;;;;;-1.44;86.02;102515.50;4894412;28;19934;-85
2024/01/27 06:15:26;;;;;;;;;;;;;;;-1.55;86.39;102517.38;4917733;28;19926;-86
2024/01/27 06:17:57;;;;;;;;;;;;;;;-1.55;86.41;102517.38;4935558;28;19926;-86
2024/01/27 06:20:26;;;;;;;;;;;;;;;-1.38;86.76;102517.59;4937445;28;19926;-85
2024/01/27 06:22:53;;;;;;;;;;;;;;;-1.38;86.25;102520.16;4899671;28;19986;-88
2024/01/27 06:25:27;;;;;;;;;;;;;;;-1.15;85.82;102519.13;4907594;28;19966;-89
2024/01/27 06:28:10;;;;;;;;;;;;;;;-1.23;85.86;102523.78;4934191;28;20034;-89
2024/01/27 06:30:37;;;;;;;;;;;;;;;-1.23;85.61;102524.66;4941815;28;20399;-89
2024/01/27 06:33:04;;;;;;;;;;;;;;;-1.29;85.53;102520.75;4950318;28;19948;-85
2024/01/27 06:35:31;;;;;;;;;;;;;;;-1.38;86.17;102525.31;4939629;28;19938;-86
2024/01/27 06:37:58;;;;;;;;;;;;;;;-1.51;86.23;102524.47;4926903;28;19937;-89
2024/01/27 06:40:25;;;;;;;;;;;;;;;-1.45;86.17;102532.66;4928847;29;19926;-85
2024/01/27 06:42:52;;;;;;;;;;;;;;;-1.50;86.27;102536.56;4929038;28;20025;-86
2024/01/27 06:45:19;;;;;;;;;;;;;;;-1.57;86.01;102527.53;4942583;28;20006;-85
2024/01/27 06:47:45;;;;;;;;;;;;;;;-1.78;86.27;102529.56;4943010;28;20027;-87
2024/01/27 06:50:13;;;;;;;;;;;;;;;-1.56;86.17;102528.44;4948538;28;19927;-85
2024/01/27 06:52:41;;;;;;;;;;;;;;;-1.66;86.45;102528.63;4947410;28;19932;-83
2024/01/27 06:55:10;;;;;;;;;;;;;;;-1.70;86.17;102529.19;4929767;28;19981;-83
2024/01/27 06:57:37;;;;;;;;;;;;;;;-1.70;86.06;102531.75;4939616;28;19927;-82
2024/01/27 07:00:04;;;;;;;;;;;;;;;-1.92;85.87;102530.28;4933789;28;19934;-83
2024/01/27 07:02:32;;;;;;;;;;;;;;;-1.76;86.50;102534.81;4943793;28;19937;-85
2024/01/27 07:04:59;;;;;;;;;;;;;;;-1.74;86.34;102530.63;4930190;29;19937;-88
2024/01/27 07:07:26;;;;;;;;;;;;;;;-1.89;86.56;102534.75;4945982;28;19938;-84
2024/01/27 07:09:56;;;;;;;;;;;;;;;-2.19;86.50;102540.41;4946232;28;19926;-86
2024/01/27 07:12:23;;;;;;;;;;;;;;;-1.70;86.77;102539.47;4949877;28;19934;-87
2024/01/27 07:14:51;;;;;;;;;;;;;;;-1.67;86.44;102532.84;4943793;28;19942;-86
2024/01/27 07:17:21;;;;;;;;;;;;;;;-1.81;86.64;102528.44;4948795;28;20022;-86
2024/01/27 07:19:49;;;;;;;;;;;;;;;-1.87;86.42;102525.44;4940331;28;19930;-86
2024/01/27 07:22:16;;;;;;;;;;;;;;;-1.67;86.42;102527.69;4947444;28;19926;-86
2024/01/27 07:24:42;;;;;;;;;;;;;;;-1.69;86.49;102533.56;4949217;28;19926;-87
2024/01/27 07:27:11;;;;;;;;;;;;;;;-1.83;86.65;102538.63;4946560;28;19926;-87
2024/01/27 07:29:38;;;;;;;;;;;;;;;-1.89;87.15;102547.63;4950380;28;19933;-87
2024/01/27 07:32:07;;;;;;;;;;;;;;;-1.84;86.78;102543.66;4950295;28;19933;-87
2024/01/27 07:34:34;;;;;;;;;;;;;;;-1.84;86.68;102547.16;4948185;28;20013;-92
2024/01/27 07:37:01;;;;;;;;;;;;;;;-1.89;87.26;102550.19;4944877;28;19927;-86
2024/01/27 07:39:27;;;;;;;;;;;;;;;-1.99;87.52;102546.09;4944549;28;20022;-87
2024/01/27 07:41:54;;;;;;;;;;;;;;;-1.96;87.51;102543.72;4949273;28;19926;-88
2024/01/27 07:44:21;;;;;;;;;;;;;;;-1.93;87.38;102554.22;4928473;28;19973;-87
2024/01/27 07:46:47;;;;;;;;;;;;;;;-2.11;87.44;102544.44;4928223;28;19997;-87
2024/01/27 07:49:15;;;;;;;;;;;;;;;-1.90;87.43;102543.25;4948951;28;19926;-88
2024/01/27 07:51:42;;;;;;;;;;;;;;;-1.94;87.39;102544.69;4945765;28;19927;-85
2024/01/27 07:54:08;;;;;;;;;;;;;;;-1.94;88.06;102550.75;4955895;28;19926;-85
2024/01/27 07:56:35;;;;;;;;;;;;;;;-2.04;88.12;102542.28;4950961;28;19927;-86
2024/01/27 07:59:02;;;;;;;;;;;;;;;-1.92;88.08;102536.31;4946313;28;19926;-87
2024/01/27 08:01:29;;;;;;;;;;;;;;;-1.86;88.17;102534.97;4945644;28;19938;-86
2024/01/27 08:03:55;;;;;;;;;;;;;;;-2.10;88.53;102535.94;4945064;28;19943;-87
2024/01/27 08:06:27;;;;;;;;;;;;;;;-1.95;88.35;102538.69;4925499;28;20401;-87
2024/01/27 08:08:54;;;;;;;;;;;;;;;-2.06;88.31;102541.28;4953127;28;19927;-87
2024/01/27 08:11:21;;;;;;;;;;;;;;;-2.04;88.68;102540.63;4948107;28;19926;-89
2024/01/27 08:13:48;;;;;;;;;;;;;;;-1.90;88.43;102539.00;4952388;28;20349;-88
2024/01/27 08:16:14;;;;;;;;;;;;;;;-1.86;88.75;102533.28;4952500;28;19934;-87
2024/01/27 08:18:45;;;;;;;;;;;;;;;-1.84;88.57;102534.28;4954554;28;19926;-89
2024/01/27 08:21:11;;;;;;;;;;;;;;;-1.79;88.46;102532.03;4947370;28;19941;-87
2024/01/27 08:23:38;;;;;;;;;;;;;;;-1.63;87.96;102534.84;4927320;28;19927;-89
2024/01/27 08:26:05;;;;;;;;;;;;;;;-1.66;87.96;102546.63;4917153;29;19985;-88
2024/01/27 08:28:33;;;;;;;;;;;;;;;-1.66;88.18;102541.47;4931367;29;19930;-87
2024/01/27 08:31:01;;;;;;;;;;;;;;;-1.51;87.94;102545.09;4949109;28;19933;-88
2024/01/27 08:33:28;;;;;;;;;;;;;;;-1.48;87.66;102540.13;4947420;28;19958;-87
2024/01/27 08:35:55;;;;;;;;;;;;;;;-1.46;87.57;102538.56;4938128;28;19970;-88
2024/01/27 08:38:22;;;;;;;;;;;;;;;-1.40;87.68;102541.56;4936561;28;19938;-88
2024/01/27 08:40:49;;;;;;;;;;;;;;;-1.33;87.75;102539.38;4943822;28;20017;-87
2024/01/27 08:43:16;;;;;;;;;;;;;;;-1.32;87.79;102536.03;4946841;28;19937;-88
2024/01/27 08:45:42;;;;;;;;;;;;;;;-1.30;87.68;102545.66;4950063;28;19933;-87
2024/01/27 08:48:11;;;;;;;;;;;;;;;-1.31;87.67;102546.44;4949862;28;19927;-87
2024/01/27 08:50:38;;;;;;;;;;;;;;;-1.22;87.68;102546.16;4933917;28;20004;-88
2024/01/27 08:53:04;;;;;;;;;;;;;;;-1.15;87.64;102553.50;4946665;28;19935;-87
2024/01/27 08:55:31;;;;;;;;;;;;;;;-1.13;87.49;102554.50;4939542;28;20045;-88
2024/01/27 08:57:58;;;;;;;;;;;;;;;-1.05;87.44;102542.13;4942583;28;19926;-88
2024/01/27 09:00:25;;;;;;;;;;;;;;;-1.16;87.00;102550.81;4937614;28;19942;-87
2024/01/27 09:02:52;;;;;;;;;;;;;;;-1.05;87.19;102552.44;4942995;28;19927;-87
2024/01/27 09:05:18;;;;;;;;;;;;;;;-0.98;87.63;102552.03;4951620;28;19927;-87
2024/01/27 09:07:46;;;;;;;;;;;;;;;-0.88;88.33;102553.56;4952672;28;20009;-87
2024/01/27 09:10:15;;;;;;;;;;;;;;;-0.84;88.66;102563.28;4932718;29;19971;-87
2024/01/27 09:12:42;;;;;;;;;;;;;;;-0.91;88.71;102558.50;4950655;28;19926;-89
2024/01/27 09:15:09;;;;;;;;;;;;;;;-0.79;88.97;102556.72;4939269;28;19927;-88
2024/01/27 09:17:36;;;;;;;;;;;;;;;-0.73;88.98;102562.25;4944114;28;19933;-89
2024/01/27 09:20:03;;;;;;;;;;;;;;;-0.75;88.62;102573.28;4951702;28;19931;-88
2024/01/27 09:22:30;;;;;;;;;;;;;;;-0.63;87.88;102579.22;4948824;28;19927;-88
2024/01/27 09:24:57;;;;;;;;;;;;;;;-0.65;87.52;102572.19;4951647;28;19933;-88
2024/01/27 09:27:24;;;;;;;;;;;;;;;-0.56;87.36;102576.25;4949689;28;20351;-89
2024/01/27 09:29:51;;;;;;;;;;;;;;;-0.54;87.11;102578.94;4952021;28;19985;-88
2024/01/27 09:32:18;;;;;;;;;;;;;;;-0.48;87.03;102592.22;4947661;28;19945;-88
2024/01/27 09:34:44;;;;;;;;;;;;;;;-0.36;87.59;102585.28;4952188;28;19961;-87
2024/01/27 09:37:11;;;;;;;;;;;;;;;-0.36;87.25;102590.44;4955293;28;19968;-86
2024/01/27 09:39:38;;;;;;;;;;;;;;;-0.23;87.03;102586.09;4953849;28;19926;-88
2024/01/27 09:42:06;;;;;;;;;;;;;;;-0.25;87.07;102587.66;4954061;28;19937;-87
2024/01/27 09:44:33;;;;;;;;;;;;;;;-0.17;87.34;102586.47;4955159;28;20021;-88
2024/01/27 09:47:00;;;;;;;;;;;;;;;0.03;87.69;102589.38;4954034;28;19937;-90
2024/01/27 09:49:27;;;;;;;;;;;;;;;-0.05;86.96;102587.22;4929117;28;19946;-87
2024/01/27 09:51:56;;;;;;;;;;;;;;;-0.02;86.90;102589.97;4941398;29;20005;-87
2024/01/27 09:54:22;;;;;;;;;;;;;;;0.09;86.69;102590.66;4950771;28;19934;-87
2024/01/27 09:56:49;;;;;;;;;;;;;;;0.06;86.49;102576.66;4935275;28;20018;-87
2024/01/27 09:59:18;;;;;;;;;;;;;;;0.15;86.24;102572.09;4929769;28;19927;-87
2024/01/27 10:01:45;;;;;;;;;;;;;;;0.20;86.33;102572.34;4943185;28;19931;-87
2024/01/27 10:04:12;;;;;;;;;;;;;;;0.34;86.14;102579.25;4949434;29;19927;-87
2024/01/27 10:06:40;;;;;;;;;;;;;;;0.49;85.86;102574.13;4951504;28;19934;-88
2024/01/27 10:09:07;;;;;;;;;;;;;;;0.47;85.70;102573.16;4932008;28;19937;-87
2024/01/27 10:11:34;;;;;;;;;;;;;;;0.51;85.81;102575.13;4952702;28;19938;-86
2024/01/27 10:14:02;;;;;;;;;;;;;;;0.55;85.16;102586.53;4952556;28;20025;-89
2024/01/27 10:16:39;;;;;;;;;;;;;;;0.54;85.55;102585.63;4951671;28;19937;-92
2024/01/27 10:19:07;;;;;;;;;;;;;;;0.49;84.83;102581.88;4933945;28;19937;-89
2024/01/27 10:21:34;;;;;;;;;;;;;;;0.61;84.98;102580.03;4947573;28;19927;-87
2024/01/27 10:24:01;;;;;;;;;;;;;;;0.62;84.93;102579.25;4946650;28;19930;-88
2024/01/27 10:26:31;;;;;;;;;;;;;;;0.60;84.77;102580.84;4951440;28;19932;-88
2024/01/27 10:28:58;;;;;;;;;;;;;;;0.73;84.39;102581.59;4926477;28;19998;-87
2024/01/27 10:31:28;;;;;;;;;;;;;;;1.14;84.25;102581.41;4945483;28;19937;-88
2024/01/27 10:33:56;;;;;;;;;;;;;;;1.41;82.87;102580.31;4946618;28;19927;-88
2024/01/27 10:36:23;;;;;;;;;;;;;;;1.72;81.98;102586.41;4931280;28;19927;-86
2024/01/27 10:38:50;;;;;;;;;;;;;;;1.71;81.61;102571.69;4930997;28;19964;-88
2024/01/27 10:41:27;;;;;;;;;;;;;;;1.82;81.32;102563.59;4946862;28;19927;-86
2024/01/27 10:43:55;;;;;;;;;;;;;;;1.53;82.32;102562.88;4924164;28;19933;-86
2024/01/27 10:46:22;;;;;;;;;;;;;;;1.59;82.16;102542.50;4930396;28;20021;-87
2024/01/27 10:48:50;;;;;;;;;;;;;;;1.60;82.07;102541.72;4944623;28;19934;-89
2024/01/27 10:51:16;;;;;;;;;;;;;;;1.70;82.01;102543.13;4939925;28;19934;-87
2024/01/27 10:53:43;;;;;;;;;;;;;;;2.03;81.97;102554.41;4930494;28;19969;-87
2024/01/27 10:56:10;;;;;;;;;;;;;;;1.96;82.55;102547.13;4929331;29;20064;-87
2024/01/27 10:58:43;;;;;;;;;;;;;;;1.92;82.44;102545.19;4936363;28;19930;-88
2024/01/27 11:01:11;;;;;;;;;;;;;;;2.39;81.37;102546.81;4934271;29;19955;-88
2024/01/27 11:03:39;;;;;;;;;;;;;;;2.27;81.19;102548.75;4946720;28;19930;-87
2024/01/27 11:06:10;;;;;;;;;;;;;;;2.38;81.48;102547.63;4941435;28;21318;-87
2024/01/27 11:08:38;;;;;;;;;;;;;;;2.42;81.18;102549.56;4931701;28;20262;-89
2024/01/27 11:11:09;;;;;;;;;;;;;;;2.57;80.90;102545.97;4937707;28;20030;-88
2024/01/27 11:13:36;;;;;;;;;;;;;;;2.71;81.24;102531.13;4944566;28;19930;-88
2024/01/27 11:16:03;;;;;;;;;;;;;;;2.73;80.73;102535.56;4941026;28;19942;-93
2024/01/27 11:18:29;;;;;;;;;;;;;;;2.73;80.78;102540.75;4933265;28;20017;-86
2024/01/27 11:20:58;;;;;;;;;;;;;;;2.91;80.78;102539.91;4921565;28;19934;-89
2024/01/27 11:23:31;;;;;;;;;;;;;;;2.93;80.44;102543.47;4937132;28;19927;-86
2024/01/27 11:26:05;;;;;;;;;;;;;;;3.18;79.50;102544.69;4930933;28;19933;-87
2024/01/27 11:28:32;;;;;;;;;;;;;;;3.40;79.34;102536.22;4938311;28;20362;-87
2024/01/27 11:30:58;;;;;;;;;;;;;;;3.21;79.28;102544.84;4927382;28;19975;-85
2024/01/27 11:33:25;;;;;;;;;;;;;;;3.46;78.32;102532.22;4941179;29;19926;-85
2024/01/27 11:36:02;;;;;;;;;;;;;;;3.57;78.63;102534.44;4948211;28;19930;-89
2024/01/27 11:38:29;;;;;;;;;;;;;;;3.67;78.99;102515.88;4929886;28;19981;-86
2024/01/27 11:40:56;;;;;;;;;;;;;;;3.96;78.28;102505.94;4949931;28;19934;-87
2024/01/27 11:43:23;;;;;;;;;;;;;;;4.04;77.20;102503.66;4947916;28;19949;-86
2024/01/27 11:45:57;;;;;;;;;;;;;;;4.30;77.19;102504.81;4950067;28;20335;-86
2024/01/27 11:48:24;;;;;;;;;;;;;;;4.34;75.76;102501.53;4944690;28;19935;-87
2024/01/27 11:51:10;;;;;;;;;;;;;;;4.56;75.46;102498.13;4948593;28;19937;-86
2024/01/27 11:53:37;;;;;;;;;;;;;;;4.43;73.77;102496.75;4944817;28;19985;-86
2024/01/27 11:56:04;;;;;;;;;;;;;;;4.86;73.65;102488.13;4945254;28;19926;-88
2024/01/27 11:58:31;;;;;;;;;;;;;;;4.72;73.50;102484.06;4930742;28;19927;-86
2024/01/27 12:00:58;;;;;;;;;;;;;;;5.06;73.64;102469.84;4943655;28;19936;-88
2024/01/27 12:03:25;;;;;;;;;;;;;;;5.03;72.29;102469.72;4942043;28;19927;-86
2024/01/27 12:05:52;;;;;;;;;;;;;;;5.44;71.63;102473.06;4932561;28;20017;-91
2024/01/27 12:08:18;;;;;;;;;;;;;;;5.64;71.25;102476.44;4932401;28;19993;-88
2024/01/27 12:10:45;;;;;;;;;;;;;;;5.33;68.51;102470.06;4940028;28;19926;-86
2024/01/27 12:13:14;;;;;;;;;;;;;;;5.71;69.09;102478.44;4948092;28;20021;-86
2024/01/27 12:15:41;;;;;;;;;;;;;;;5.63;68.83;102473.78;4950632;28;19933;-87
2024/01/27 12:18:08;;;;;;;;;;;;;;;6.08;68.13;102485.03;4944659;28;19950;-86
2024/01/27 12:20:35;;;;;;;;;;;;;;;6.13;68.17;102481.72;4943765;28;19989;-85
2024/01/27 12:23:10;;;;;;;;;;;;;;;6.40;67.78;102481.78;4942261;28;19927;-86
2024/01/27 12:25:37;;;;;;;;;;;;;;;6.45;67.22;102480.22;4937664;28;19941;-86
2024/01/27 12:28:04;;;;;;;;;;;;;;;6.15;65.45;102488.75;4948705;28;19937;-86
2024/01/27 12:30:34;;;;;;;;;;;;;;;6.42;64.03;102475.78;4940357;28;20289;-86
2024/01/27 12:33:01;;;;;;;;;;;;;;;6.08;64.81;102485.03;4933520;28;19931;-86
2024/01/27 12:35:29;;;;;;;;;;;;;;;6.95;65.47;102478.44;4923094;28;19962;-86
2024/01/27 12:37:56;;;;;;;;;;;;;;;7.32;64.51;102476.97;4937899;28;19961;-87
2024/01/27 12:40:23;;;;;;;;;;;;;;;7.57;62.62;102464.66;4931326;28;19934;-87
2024/01/27 12:42:51;;;;;;;;;;;;;;;7.77;64.48;102469.59;4949516;28;19933;-86